Time;durP1;ratioP1;P1;durP2;ratioP2;P2;SDS_P1;SDS_P2;PMS_P1;PMS_P2;Temp;Humidity;BMP_temperature;BMP_pressure;BME280_temperature;BME280_humidity;BME280_pressure;Samples;Min_cycle;Max_cycle;Signal;HPM_P1;HPM_P2
2022/07/17 00:00:28;;;;;;;9.27;6.28;;;19.10;99.90;;;;;;5078483;28;20066;-77
2022/07/17 00:02:55;;;;;;;5.97;5.38;;;19.10;99.90;;;;;;5077996;28;20071;-76
2022/07/17 00:05:23;;;;;;;7.63;5.25;;;19.10;99.90;;;;;;5096271;28;20067;-78
2022/07/17 00:07:50;;;;;;;11.20;5.60;;;19.10;99.90;;;;;;5079208;28;20044;-77
2022/07/17 00:10:18;;;;;;;9.32;5.60;;;19.00;99.90;;;;;;5096174;28;20066;-78
2022/07/17 00:12:46;;;;;;;8.15;5.97;;;18.90;99.90;;;;;;5095808;28;20071;-77
2022/07/17 00:15:13;;;;;;;7.50;5.90;;;18.80;99.90;;;;;;5095252;28;20453;-78
2022/07/17 00:17:41;;;;;;;9.45;5.65;;;18.70;99.90;;;;;;5093324;28;20044;-76
2022/07/17 00:20:09;;;;;;;8.48;6.38;;;18.70;99.90;;;;;;5089947;28;20040;-77
2022/07/17 00:22:37;;;;;;;8.23;5.60;;;18.70;99.90;;;;;;5075534;28;20044;-79
2022/07/17 00:25:05;;;;;;;8.63;5.82;;;18.70;99.90;;;;;;5095213;28;20093;-77
2022/07/17 00:27:34;;;;;;;8.82;5.50;;;18.70;99.90;;;;;;5097500;28;20040;-77
2022/07/17 00:30:01;;;;;;;8.45;5.53;;;18.60;99.90;;;;;;5096406;28;20491;-79
2022/07/17 00:32:29;;;;;;;8.02;6.30;;;18.60;99.90;;;;;;5094952;28;20067;-78
2022/07/17 00:34:56;;;;;;;8.45;5.85;;;18.50;99.90;;;;;;5077504;28;20144;-77
2022/07/17 00:37:24;;;;;;;7.80;6.35;;;18.30;99.90;;;;;;5079606;28;20045;-77
2022/07/17 00:39:51;;;;;;;9.48;6.60;;;18.30;99.90;;;;;;5099192;28;20036;-76
2022/07/17 00:42:19;;;;;;;7.72;6.13;;;18.30;99.90;;;;;;5088365;28;20094;-76
2022/07/17 00:44:47;;;;;;;8.07;6.07;;;18.20;99.90;;;;;;5100952;28;20040;-77
2022/07/17 00:47:16;;;;;;;7.40;5.65;;;18.10;99.90;;;;;;5083785;28;20098;-75
2022/07/17 00:49:43;;;;;;;11.02;5.47;;;18.10;99.90;;;;;;5084791;28;20079;-77
2022/07/17 00:52:12;;;;;;;10.02;5.97;;;18.10;99.90;;;;;;5084915;28;20047;-81
2022/07/17 00:54:41;;;;;;;6.32;5.68;;;18.10;99.90;;;;;;5086291;28;20049;-80
2022/07/17 00:57:11;;;;;;;7.40;5.57;;;18.10;99.90;;;;;;5081362;28;20135;-80
2022/07/17 00:59:39;;;;;;;9.75;5.80;;;18.10;99.90;;;;;;5081314;28;20458;-79
2022/07/17 01:02:09;;;;;;;7.75;5.55;;;18.10;99.90;;;;;;5079717;28;20045;-82
2022/07/17 01:04:37;;;;;;;8.98;5.72;;;18.00;99.90;;;;;;5080319;28;20094;-80
2022/07/17 01:07:06;;;;;;;11.82;6.85;;;18.10;99.90;;;;;;5071299;28;20060;-80
2022/07/17 01:09:34;;;;;;;9.63;6.78;;;18.00;99.90;;;;;;5073123;28;20434;-81
2022/07/17 01:12:02;;;;;;;17.08;9.85;;;18.00;99.90;;;;;;5080879;28;20036;-81
2022/07/17 01:14:29;;;;;;;7.35;6.03;;;17.90;99.90;;;;;;5060889;28;20049;-80
2022/07/17 01:16:57;;;;;;;8.48;6.78;;;17.90;99.90;;;;;;5061036;28;20033;-80
2022/07/17 01:19:26;;;;;;;7.32;5.53;;;17.90;99.90;;;;;;5062843;28;20080;-79
2022/07/17 01:21:55;;;;;;;14.50;7.68;;;17.90;99.90;;;;;;5068454;28;20040;-80
2022/07/17 01:24:22;;;;;;;10.38;6.10;;;17.80;99.90;;;;;;5060779;28;20045;-77
2022/07/17 01:26:50;;;;;;;11.48;6.53;;;17.80;99.90;;;;;;5061444;28;20036;-76
2022/07/17 01:29:18;;;;;;;9.77;6.47;;;17.80;99.90;;;;;;5061217;28;20049;-77
2022/07/17 01:31:46;;;;;;;6.47;5.78;;;17.70;99.90;;;;;;5066419;28;20058;-77
2022/07/17 01:34:13;;;;;;;7.68;5.80;;;17.70;99.90;;;;;;5075973;28;20041;-76
2022/07/17 01:36:41;;;;;;;7.82;5.90;;;17.60;99.90;;;;;;5077931;28;20052;-77
2022/07/17 01:39:10;;;;;;;6.82;5.93;;;17.60;99.90;;;;;;5070024;28;20036;-76
2022/07/17 01:41:37;;;;;;;8.30;6.38;;;17.60;99.90;;;;;;5062743;28;20041;-76
2022/07/17 01:44:06;;;;;;;12.57;8.55;;;17.60;99.90;;;;;;5061627;28;20048;-77
2022/07/17 01:46:33;;;;;;;9.40;8.40;;;17.50;99.90;;;;;;5062552;28;20056;-77
2022/07/17 01:49:02;;;;;;;8.82;7.75;;;17.50;99.90;;;;;;5082035;28;20041;-77
2022/07/17 01:51:29;;;;;;;9.93;7.43;;;17.40;99.90;;;;;;5079365;28;20051;-78
2022/07/17 01:53:57;;;;;;;10.07;6.78;;;17.40;99.90;;;;;;5077863;28;20044;-75
2022/07/17 01:56:25;;;;;;;9.20;6.53;;;17.40;99.90;;;;;;5060652;28;20044;-78
2022/07/17 01:58:53;;;;;;;8.73;6.10;;;17.40;99.90;;;;;;5078772;28;20090;-77
2022/07/17 02:01:20;;;;;;;9.55;6.28;;;17.40;99.90;;;;;;5078475;28;20052;-77
2022/07/17 02:03:47;;;;;;;8.18;6.32;;;17.40;99.90;;;;;;5077436;28;20071;-77
2022/07/17 02:06:15;;;;;;;10.25;5.88;;;17.40;99.90;;;;;;5089592;28;20044;-77
2022/07/17 02:08:42;;;;;;;11.57;6.60;;;17.30;99.90;;;;;;5081359;28;20044;-77
2022/07/17 02:11:09;;;;;;;7.25;5.60;;;17.40;99.90;;;;;;5074536;28;20559;-76
2022/07/17 02:13:38;;;;;;;9.45;6.20;;;17.30;99.90;;;;;;5085041;28;20044;-78
2022/07/17 02:16:06;;;;;;;6.63;5.93;;;17.30;99.90;;;;;;5078180;28;20033;-76
2022/07/17 02:18:34;;;;;;;9.32;6.05;;;17.30;99.90;;;;;;5077914;28;20044;-76
2022/07/17 02:21:01;;;;;;;7.55;5.97;;;17.30;99.90;;;;;;5113306;28;20413;-76
2022/07/17 02:23:28;;;;;;;8.48;6.15;;;17.30;99.90;;;;;;5099218;28;20047;-76
2022/07/17 02:25:56;;;;;;;6.90;5.65;;;17.30;99.90;;;;;;5118749;28;20123;-76
2022/07/17 02:28:23;;;;;;;8.38;5.45;;;17.30;99.90;;;;;;5117475;28;20104;-77
2022/07/17 02:30:52;;;;;;;8.48;5.97;;;17.30;99.90;;;;;;5118499;28;20043;-78
2022/07/17 02:33:19;;;;;;;9.52;6.32;;;17.30;99.90;;;;;;5113856;28;20202;-78
2022/07/17 02:35:47;;;;;;;9.82;5.70;;;17.30;99.90;;;;;;5119324;28;20047;-79
2022/07/17 02:38:14;;;;;;;9.98;6.10;;;17.20;99.90;;;;;;5097212;28;20070;-76
2022/07/17 02:40:42;;;;;;;7.40;5.85;;;17.30;99.90;;;;;;5071367;28;20052;-78
2022/07/17 02:43:10;;;;;;;10.30;5.70;;;17.30;99.90;;;;;;5103843;28;20049;-79
2022/07/17 02:45:38;;;;;;;8.98;5.82;;;17.20;99.90;;;;;;5109281;28;20028;-79
2022/07/17 02:48:07;;;;;;;6.65;5.60;;;17.20;99.90;;;;;;5098282;28;20106;-78
2022/07/17 02:50:34;;;;;;;7.53;6.47;;;17.20;99.90;;;;;;5095224;28;20051;-78
2022/07/17 02:53:01;;;;;;;8.85;5.97;;;17.10;99.90;;;;;;5096714;28;20066;-77
2022/07/17 02:55:29;;;;;;;8.65;6.10;;;17.00;99.90;;;;;;5096991;28;20042;-78
2022/07/17 02:57:56;;;;;;;7.05;6.13;;;16.90;99.90;;;;;;5097184;28;20044;-76
2022/07/17 03:00:24;;;;;;;7.57;6.22;;;16.90;99.90;;;;;;5088036;28;20049;-78
2022/07/17 03:02:51;;;;;;;8.00;5.72;;;17.00;99.90;;;;;;5082746;28;20141;-76
2022/07/17 03:05:20;;;;;;;8.38;6.20;;;17.10;99.90;;;;;;5096487;28;20094;-77
2022/07/17 03:07:47;;;;;;;9.05;6.38;;;17.00;99.90;;;;;;5078826;28;20168;-77
2022/07/17 03:10:15;;;;;;;9.32;6.53;;;17.10;99.90;;;;;;5097406;28;20036;-77
2022/07/17 03:12:43;;;;;;;8.13;5.95;;;17.10;99.90;;;;;;5078601;28;20055;-77
2022/07/17 03:15:11;;;;;;;7.20;6.15;;;17.20;99.90;;;;;;5097334;28;20048;-76
2022/07/17 03:17:39;;;;;;;10.60;6.40;;;17.20;99.90;;;;;;5098271;28;20078;-77
2022/07/17 03:20:08;;;;;;;10.57;6.35;;;17.20;99.90;;;;;;5089357;28;20043;-77
2022/07/17 03:22:37;;;;;;;5.97;5.38;;;17.20;99.90;;;;;;5078435;28;20074;-77
2022/07/17 03:25:05;;;;;;;9.48;5.95;;;17.20;99.90;;;;;;5095437;28;20044;-79
2022/07/17 03:27:32;;;;;;;9.55;6.10;;;17.20;99.90;;;;;;5092747;28;20055;-78
2022/07/17 03:30:00;;;;;;;7.53;5.82;;;17.30;99.90;;;;;;5091258;28;20415;-78
2022/07/17 03:32:28;;;;;;;8.82;6.22;;;17.30;99.90;;;;;;5094142;28;20443;-77
2022/07/17 03:34:55;;;;;;;8.88;6.20;;;17.30;99.90;;;;;;5100326;28;20490;-77
2022/07/17 03:37:22;;;;;;;7.40;5.97;;;17.30;99.90;;;;;;5079305;28;20112;-78
2022/07/17 03:39:51;;;;;;;7.38;6.18;;;17.30;99.90;;;;;;5099883;28;20040;-79
2022/07/17 03:42:18;;;;;;;8.25;5.80;;;17.30;99.90;;;;;;5096185;28;20399;-77
2022/07/17 03:44:45;;;;;;;8.10;6.40;;;17.20;99.90;;;;;;5096617;28;20052;-76
2022/07/17 03:47:13;;;;;;;9.00;6.00;;;17.30;99.90;;;;;;5078182;28;20044;-75
2022/07/17 03:49:40;;;;;;;8.13;5.88;;;17.30;99.90;;;;;;5084893;28;20119;-78
2022/07/17 03:52:07;;;;;;;9.18;6.50;;;17.30;99.90;;;;;;5074884;28;20044;-75
2022/07/17 03:54:35;;;;;;;9.52;5.97;;;17.40;99.90;;;;;;5074975;28;20098;-76
2022/07/17 03:57:03;;;;;;;7.75;5.93;;;17.50;99.90;;;;;;5075136;28;20040;-77
2022/07/17 03:59:31;;;;;;;7.28;5.60;;;17.60;99.90;;;;;;5074571;28;20044;-76
2022/07/17 04:01:58;;;;;;;10.13;5.47;;;17.60;99.90;;;;;;5057928;28;20434;-76
2022/07/17 04:04:25;;;;;;;8.93;6.20;;;17.60;99.90;;;;;;5094500;28;20068;-78
2022/07/17 04:06:52;;;;;;;11.63;6.05;;;17.70;99.90;;;;;;5076839;28;20044;-75
2022/07/17 04:09:20;;;;;;;10.98;6.20;;;17.80;99.90;;;;;;5095291;28;20445;-78
2022/07/17 04:11:47;;;;;;;10.73;5.82;;;17.90;99.90;;;;;;5094388;28;20476;-75
2022/07/17 04:14:16;;;;;;;13.77;6.43;;;18.10;99.90;;;;;;5093650;28;20123;-76
2022/07/17 04:16:43;;;;;;;10.27;5.78;;;18.20;99.90;;;;;;5093762;28;20060;-77
2022/07/17 04:19:10;;;;;;;8.85;6.13;;;18.20;99.90;;;;;;5097065;28;20063;-78
2022/07/17 04:21:37;;;;;;;10.25;6.40;;;18.30;99.90;;;;;;5095530;28;20044;-76
2022/07/17 04:24:05;;;;;;;9.30;6.38;;;18.40;99.90;;;;;;5094029;28;20139;-77
2022/07/17 04:26:32;;;;;;;13.00;6.60;;;18.40;99.90;;;;;;5088914;28;20063;-76
2022/07/17 04:29:00;;;;;;;9.18;5.88;;;18.70;99.90;;;;;;5055772;28;20076;-76
2022/07/17 04:31:29;;;;;;;6.97;5.47;;;19.00;99.90;;;;;;5078836;28;20375;-76
2022/07/17 04:33:56;;;;;;;12.40;6.15;;;19.20;99.90;;;;;;5093947;28;20145;-76
2022/07/17 04:36:23;;;;;;;9.05;5.93;;;19.60;99.90;;;;;;5076350;28;20047;-76
2022/07/17 04:38:51;;;;;;;8.85;6.85;;;20.20;99.90;;;;;;5093923;28;20067;-76
2022/07/17 04:41:18;;;;;;;8.98;5.97;;;20.60;99.90;;;;;;5096296;28;20062;-77
2022/07/17 04:43:45;;;;;;;17.25;7.90;;;20.70;99.90;;;;;;5107102;28;20067;-78
2022/07/17 04:46:12;;;;;;;17.75;11.13;;;21.00;99.90;;;;;;5105241;28;20040;-78
2022/07/17 04:48:41;;;;;;;14.52;8.52;;;21.20;99.90;;;;;;5090723;28;20066;-77
2022/07/17 04:51:08;;;;;;;11.73;7.10;;;21.30;99.90;;;;;;5097653;28;20095;-78
2022/07/17 04:53:37;;;;;;;12.18;7.05;;;21.70;99.90;;;;;;5074949;28;20040;-78
2022/07/17 04:56:04;;;;;;;18.42;8.25;;;21.80;99.90;;;;;;5096048;28;20044;-76
2022/07/17 04:58:32;;;;;;;18.25;10.88;;;21.60;99.90;;;;;;5093044;28;20105;-77
2022/07/17 05:00:59;;;;;;;17.75;10.50;;;21.50;99.90;;;;;;5087187;28;20044;-77
2022/07/17 05:03:26;;;;;;;17.83;9.63;;;21.40;99.90;;;;;;5094198;28;20051;-76
2022/07/17 05:05:55;;;;;;;17.65;9.40;;;21.50;99.90;;;;;;5094643;28;20097;-77
2022/07/17 05:08:22;;;;;;;15.77;11.02;;;21.50;99.90;;;;;;5095054;28;20040;-76
2022/07/17 05:10:49;;;;;;;16.48;10.25;;;21.90;99.90;;;;;;5094472;28;20032;-78
2022/07/17 05:13:17;;;;;;;18.83;13.07;;;22.40;99.90;;;;;;5084453;28;20044;-76
2022/07/17 05:15:44;;;;;;;25.67;13.98;;;23.20;99.90;;;;;;5076965;28;20037;-77
2022/07/17 05:18:12;;;;;;;25.23;14.38;;;24.30;99.90;;;;;;5075747;28;20040;-77
2022/07/17 05:20:41;;;;;;;23.42;14.00;;;25.40;99.90;;;;;;5094956;28;20566;-77
2022/07/17 05:23:10;;;;;;;20.67;13.60;;;26.10;99.90;;;;;;5098979;28;20419;-78
2022/07/17 05:25:37;;;;;;;23.52;13.77;;;26.70;99.90;;;;;;5083074;28;20103;-76
2022/07/17 05:28:05;;;;;;;22.40;13.13;;;27.40;99.90;;;;;;5087449;28;20048;-78
2022/07/17 05:30:32;;;;;;;22.17;13.05;;;28.00;99.90;;;;;;5090566;28;20556;-77
2022/07/17 05:32:59;;;;;;;22.58;12.70;;;27.90;99.90;;;;;;5100171;28;20025;-78
2022/07/17 05:35:27;;;;;;;24.42;13.68;;;27.00;99.90;;;;;;5087938;28;20044;-78
2022/07/17 05:37:54;;;;;;;23.83;14.70;;;26.60;99.90;;;;;;5109961;28;20087;-78
2022/07/17 05:40:25;;;;;;;20.45;14.55;;;26.90;99.90;;;;;;5103332;28;20047;-78
2022/07/17 05:42:55;;;;;;;31.65;19.55;;;27.30;99.90;;;;;;5103947;28;20044;-77
2022/07/17 05:45:22;;;;;;;20.25;12.45;;;26.80;99.90;;;;;;5085941;28;20063;-77
2022/07/17 05:47:50;;;;;;;19.50;12.70;;;26.00;99.90;;;;;;5107553;28;20104;-78
2022/07/17 05:50:19;;;;;;;19.15;12.35;;;25.40;99.90;;;;;;5108862;28;20515;-79
2022/07/17 05:52:46;;;;;;;20.92;12.90;;;25.10;99.90;;;;;;5085867;28;20056;-77
2022/07/17 05:55:14;;;;;;;21.88;11.30;;;24.80;99.90;;;;;;5099667;28;20078;-75
2022/07/17 05:57:42;;;;;;;19.15;12.15;;;24.30;99.90;;;;;;5090317;28;20036;-76
2022/07/17 06:00:11;;;;;;;20.52;11.15;;;24.20;99.90;;;;;;5102826;28;20060;-76
2022/07/17 06:02:42;;;;;;;17.67;10.05;;;24.10;99.90;;;;;;5067383;28;20076;-75
2022/07/17 06:05:10;;;;;;;19.15;9.90;;;23.70;99.90;;;;;;5094770;28;20044;-75
2022/07/17 06:07:37;;;;;;;13.55;8.85;;;23.30;99.90;;;;;;5096763;28;20121;-76
2022/07/17 06:10:05;;;;;;;17.95;13.30;;;23.10;99.90;;;;;;5079125;28;20043;-76
2022/07/17 06:12:32;;;;;;;12.23;8.05;;;23.10;99.90;;;;;;5098602;28;20070;-76
2022/07/17 06:15:01;;;;;;;16.83;9.68;;;23.30;99.90;;;;;;5079471;28;20105;-77
2022/07/17 06:17:28;;;;;;;17.67;8.75;;;23.50;99.90;;;;;;5096853;28;20123;-76
2022/07/17 06:19:56;;;;;;;17.52;9.30;;;23.70;99.90;;;;;;5077750;28;20453;-77
2022/07/17 06:22:23;;;;;;;12.02;7.28;;;24.00;99.90;;;;;;5084092;28;20043;-76
2022/07/17 06:24:50;;;;;;;16.80;8.27;;;24.10;99.90;;;;;;5090427;28;20098;-77
2022/07/17 06:27:17;;;;;;;14.80;8.48;;;24.10;99.90;;;;;;5092961;28;20067;-76
2022/07/17 06:29:46;;;;;;;16.58;7.40;;;24.30;99.90;;;;;;5093367;28;20040;-77
2022/07/17 06:32:14;;;;;;;14.32;7.47;;;24.30;99.90;;;;;;5094531;28;20071;-76
2022/07/17 06:34:42;;;;;;;14.65;7.25;;;24.70;99.90;;;;;;5091415;28;20506;-76
2022/07/17 06:37:09;;;;;;;12.60;8.45;;;25.10;99.90;;;;;;5098641;28;20048;-76
2022/07/17 06:39:36;;;;;;;15.98;10.50;;;25.40;99.90;;;;;;5101738;28;20083;-75
2022/07/17 06:42:04;;;;;;;12.07;6.45;;;25.80;99.90;;;;;;5081142;28;20052;-75
2022/07/17 06:44:33;;;;;;;13.63;7.47;;;26.30;99.90;;;;;;5084191;28;20041;-76
2022/07/17 06:47:00;;;;;;;15.68;7.50;;;27.00;99.90;;;;;;5082824;28;20062;-76
2022/07/17 06:49:29;;;;;;;11.95;6.80;;;27.90;99.90;;;;;;5082791;28;20033;-76
2022/07/17 06:51:56;;;;;;;13.10;6.05;;;28.40;97.60;;;;;;5066756;28;20041;-76
2022/07/17 06:54:25;;;;;;;11.70;6.00;;;28.60;93.60;;;;;;5097299;28;20044;-76
2022/07/17 06:56:53;;;;;;;9.05;5.10;;;28.60;91.90;;;;;;5097998;28;20071;-76
2022/07/17 06:59:21;;;;;;;7.18;3.08;;;28.10;91.40;;;;;;5094035;28;20036;-77
2022/07/17 07:01:49;;;;;;;7.47;3.00;;;27.60;84.30;;;;;;5069275;28;20053;-76
2022/07/17 07:04:16;;;;;;;5.43;2.85;;;26.50;81.00;;;;;;5090234;28;20063;-77
2022/07/17 07:06:45;;;;;;;6.70;3.10;;;26.30;80.40;;;;;;5095531;28;20117;-76
2022/07/17 07:09:12;;;;;;;6.50;3.20;;;25.90;82.00;;;;;;5069856;28;20048;-76
2022/07/17 07:11:40;;;;;;;6.47;3.60;;;26.30;82.00;;;;;;5058689;28;20053;-76
2022/07/17 07:14:10;;;;;;;5.75;2.78;;;26.70;80.30;;;;;;5092360;28;20487;-77
2022/07/17 07:16:38;;;;;;;8.05;2.63;;;26.70;80.30;;;;;;5091700;28;20446;-77
2022/07/17 07:19:05;;;;;;;11.55;2.63;;;27.20;78.70;;;;;;5077959;28;20072;-77
2022/07/17 07:21:32;;;;;;;7.22;2.78;;;27.20;77.00;;;;;;5083915;28;20048;-75
2022/07/17 07:24:01;;;;;;;7.13;2.80;;;26.60;78.90;;;;;;5096578;28;20051;-75
2022/07/17 07:26:29;;;;;;;7.13;2.95;;;26.50;77.90;;;;;;5080566;28;20066;-76
2022/07/17 07:28:57;;;;;;;6.53;2.55;;;25.80;78.40;;;;;;5079960;28;20442;-78
2022/07/17 07:31:24;;;;;;;6.07;2.78;;;25.80;78.80;;;;;;5088989;28;20043;-76
2022/07/17 07:33:52;;;;;;;9.10;3.45;;;26.00;77.80;;;;;;5075836;28;20079;-75
2022/07/17 07:36:19;;;;;;;5.07;2.90;;;26.30;77.40;;;;;;5072320;28;20040;-75
2022/07/17 07:38:46;;;;;;;7.25;3.83;;;26.40;77.10;;;;;;5089955;28;20039;-75
2022/07/17 07:41:15;;;;;;;5.25;2.65;;;26.30;77.70;;;;;;5057613;28;20132;-75
2022/07/17 07:43:42;;;;;;;6.18;3.15;;;26.30;78.20;;;;;;5056280;28;20048;-75
2022/07/17 07:46:09;;;;;;;9.25;3.72;;;26.50;78.70;;;;;;5075376;28;20419;-75
2022/07/17 07:48:37;;;;;;;5.60;2.70;;;26.50;79.50;;;;;;5073396;28;20102;-75
2022/07/17 07:51:04;;;;;;;6.10;2.67;;;26.60;78.50;;;;;;5071281;28;20040;-75
2022/07/17 07:53:32;;;;;;;5.38;3.10;;;26.20;79.50;;;;;;5090899;28;20418;-75
2022/07/17 07:55:59;;;;;;;4.75;2.60;;;26.40;79.60;;;;;;5096439;28;20043;-75
2022/07/17 07:58:28;;;;;;;5.18;2.60;;;26.20;78.30;;;;;;5080353;28;20039;-76
2022/07/17 08:00:55;;;;;;;8.20;2.88;;;26.30;78.50;;;;;;5096296;28;20076;-79
2022/07/17 08:03:22;;;;;;;8.45;2.75;;;26.20;79.10;;;;;;5078274;28;20150;-74
2022/07/17 08:05:50;;;;;;;7.53;3.33;;;26.00;79.90;;;;;;5060681;28;20486;-72
2022/07/17 08:08:17;;;;;;;4.90;2.67;;;26.10;79.90;;;;;;5092289;28;20036;-75
2022/07/17 08:10:44;;;;;;;15.13;8.80;;;26.30;79.80;;;;;;5090614;28;20036;-72
2022/07/17 08:13:12;;;;;;;6.47;3.25;;;26.50;79.90;;;;;;5093463;28;20044;-73
2022/07/17 08:15:40;;;;;;;6.13;3.13;;;26.90;79.30;;;;;;5092239;28;20059;-74
2022/07/17 08:18:07;;;;;;;22.50;16.88;;;26.20;79.00;;;;;;5087607;28;20472;-72
2022/07/17 08:20:35;;;;;;;8.63;5.82;;;26.60;78.70;;;;;;5084472;28;20032;-72
2022/07/17 08:23:02;;;;;;;7.65;4.43;;;26.90;77.70;;;;;;5084711;28;20044;-73
2022/07/17 08:25:29;;;;;;;6.50;2.80;;;26.70;77.00;;;;;;5093034;28;20059;-72
2022/07/17 08:27:57;;;;;;;3.80;2.17;;;26.80;76.40;;;;;;5082783;28;20051;-72
2022/07/17 08:30:24;;;;;;;5.72;2.50;;;26.70;74.30;;;;;;5096786;28;20036;-70
2022/07/17 08:32:53;;;;;;;5.53;3.10;;;26.20;75.90;;;;;;5110417;28;20070;-71
2022/07/17 08:35:20;;;;;;;5.13;2.47;;;26.10;76.20;;;;;;5088739;28;20045;-70
2022/07/17 08:37:49;;;;;;;6.28;2.53;;;26.20;75.60;;;;;;5075588;28;20085;-72
2022/07/17 08:40:22;;;;;;;7.80;2.92;;;26.00;76.20;;;;;;5093463;28;20364;-71
2022/07/17 08:42:50;;;;;;;3.90;2.63;;;26.10;76.20;;;;;;5089874;28;20403;-71
2022/07/17 08:45:17;;;;;;;4.45;2.47;;;26.30;75.80;;;;;;5088859;28;20090;-71
2022/07/17 08:47:45;;;;;;;4.28;2.30;;;26.10;76.80;;;;;;5081744;28;20057;-72
2022/07/17 08:50:14;;;;;;;7.07;2.40;;;26.50;74.50;;;;;;5089550;28;20032;-71
2022/07/17 08:52:43;;;;;;;8.85;2.50;;;26.40;73.20;;;;;;5087069;28;20040;-71
2022/07/17 08:55:13;;;;;;;6.68;2.50;;;26.20;74.30;;;;;;5080044;28;20068;-71
2022/07/17 08:57:41;;;;;;;6.10;2.75;;;26.10;73.60;;;;;;5092302;28;20089;-77
2022/07/17 09:00:11;;;;;;;7.10;2.70;;;26.40;73.00;;;;;;5074902;28;20066;-77
2022/07/17 09:02:39;;;;;;;8.90;3.40;;;26.50;72.40;;;;;;5092173;28;20054;-77
2022/07/17 09:05:08;;;;;;;3.38;2.28;;;26.40;71.60;;;;;;5080714;28;20040;-76
2022/07/17 09:07:46;;;;;;;3.58;2.30;;;26.30;71.80;;;;;;5098429;28;20070;-75
2022/07/17 09:10:14;;;;;;;6.32;2.67;;;26.40;70.70;;;;;;5100382;28;20044;-75
2022/07/17 09:12:42;;;;;;;4.25;2.22;;;26.20;70.10;;;;;;5081358;28;20134;-76
2022/07/17 09:15:17;;;;;;;3.13;1.60;;;26.40;68.60;;;;;;5098555;28;20067;-76
2022/07/17 09:17:50;;;;;;;3.72;2.05;;;26.20;66.00;;;;;;5098454;28;20481;-78
2022/07/17 09:20:20;;;;;;;4.43;2.25;;;26.10;65.90;;;;;;5098818;28;20127;-76
2022/07/17 09:23:00;;;;;;;5.30;2.70;;;26.30;67.90;;;;;;5098184;28;20051;-76
2022/07/17 09:25:38;;;;;;;5.63;2.60;;;26.50;69.20;;;;;;5098242;28;20047;-77
2022/07/17 09:28:08;;;;;;;6.25;2.10;;;26.60;69.50;;;;;;5097429;28;20040;-76
2022/07/17 09:30:38;;;;;;;5.20;2.42;;;26.60;69.80;;;;;;5097328;28;20046;-76
2022/07/17 09:33:09;;;;;;;6.10;2.63;;;26.30;68.60;;;;;;5097009;28;20498;-76
2022/07/17 09:35:44;;;;;;;7.88;2.88;;;26.60;69.90;;;;;;5098184;28;20485;-75
2022/07/17 09:38:14;;;;;;;5.97;2.90;;;26.90;69.40;;;;;;5097420;28;20036;-76
2022/07/17 09:43:38;;;;;;;5.07;2.03;;;26.70;68.10;;;;;;5078550;28;20121;-76
2022/07/17 09:46:05;;;;;;;5.97;2.15;;;26.70;68.30;;;;;;5078736;28;20055;-77
2022/07/17 09:48:34;;;;;;;8.35;2.63;;;26.50;68.40;;;;;;5091644;22;20088;-76
2022/07/17 09:51:03;;;;;;;5.50;2.40;;;26.20;69.70;;;;;;5072345;28;20076;-75
2022/07/17 09:53:37;;;;;;;6.55;2.88;;;26.40;68.50;;;;;;5075868;28;20498;-77
2022/07/17 09:56:05;;;;;;;6.28;3.00;;;26.70;67.60;;;;;;5076260;28;20410;-75
2022/07/17 09:58:36;;;;;;;7.95;2.75;;;27.00;67.00;;;;;;5075599;28;20085;-77
2022/07/17 10:01:04;;;;;;;7.25;2.33;;;27.20;68.30;;;;;;5076642;28;20087;-77
2022/07/17 10:03:32;;;;;;;3.10;2.15;;;27.20;68.00;;;;;;5074791;28;20056;-76
2022/07/17 10:05:59;;;;;;;5.57;2.30;;;26.90;68.50;;;;;;5075743;28;20048;-76
2022/07/17 10:08:27;;;;;;;4.70;2.70;;;26.70;68.90;;;;;;5075935;28;20115;-77
2022/07/17 10:10:55;;;;;;;6.45;2.35;;;26.50;69.30;;;;;;5075561;28;20048;-76
2022/07/17 10:13:23;;;;;;;3.38;2.00;;;26.40;69.50;;;;;;5072945;28;20517;-76
2022/07/17 10:15:52;;;;;;;9.43;2.83;;;26.10;69.40;;;;;;5075625;28;20412;-77
2022/07/17 10:18:22;;;;;;;4.93;3.35;;;26.20;70.30;;;;;;5074994;28;20044;-76
2022/07/17 10:20:49;;;;;;;6.63;3.28;;;26.70;70.20;;;;;;5075561;28;20072;-76
2022/07/17 10:23:17;;;;;;;6.70;3.40;;;26.90;68.90;;;;;;5075274;28;20153;-77
2022/07/17 10:25:44;;;;;;;3.80;2.30;;;26.80;68.40;;;;;;5075542;28;20048;-77
2022/07/17 10:28:16;;;;;;;3.50;1.92;;;27.00;67.40;;;;;;5075578;28;20041;-77
2022/07/17 10:30:46;;;;;;;6.10;2.13;;;27.00;67.00;;;;;;5075333;28;20044;-76
2022/07/17 10:33:18;;;;;;;5.65;2.35;;;26.50;68.00;;;;;;5075335;28;20044;-77
2022/07/17 10:35:47;;;;;;;4.43;2.30;;;26.40;68.90;;;;;;5075305;28;20491;-77
2022/07/17 10:38:16;;;;;;;6.75;2.40;;;26.60;68.60;;;;;;5075204;28;20055;-76
2022/07/17 10:40:43;;;;;;;5.43;2.17;;;26.50;68.50;;;;;;5075886;28;20044;-76
2022/07/17 10:43:12;;;;;;;8.25;3.80;;;26.40;68.10;;;;;;5075894;28;20052;-74
2022/07/17 10:45:42;;;;;;;7.78;2.63;;;26.70;69.00;;;;;;5075747;28;20052;-76
2022/07/17 10:48:11;;;;;;;6.30;2.30;;;27.00;68.50;;;;;;5086400;28;20087;-76
2022/07/17 10:50:40;;;;;;;5.35;2.00;;;27.30;67.20;;;;;;5077167;28;20040;-77
2022/07/17 10:53:15;;;;;;;5.35;2.45;;;26.90;67.30;;;;;;5094985;28;20044;-76
2022/07/17 10:55:45;;;;;;;5.55;2.28;;;26.60;67.60;;;;;;5095571;28;20048;-78
2022/07/17 10:58:20;;;;;;;4.32;2.15;;;26.40;68.80;;;;;;5077073;28;20479;-77
2022/07/17 11:00:58;;;;;;;4.28;2.38;;;26.30;67.90;;;;;;5094986;28;20097;-76
2022/07/17 11:03:25;;;;;;;4.32;2.17;;;26.50;67.60;;;;;;5094821;28;20478;-77
2022/07/17 11:05:52;;;;;;;6.93;2.35;;;26.40;67.60;;;;;;5094668;28;20094;-76
2022/07/17 11:08:20;;;;;;;4.22;2.25;;;26.50;68.80;;;;;;5094529;28;20048;-76
2022/07/17 11:10:47;;;;;;;4.82;2.00;;;26.30;67.60;;;;;;5094896;28;20048;-76
2022/07/17 11:13:16;;;;;;;3.35;1.90;;;26.50;67.80;;;;;;5094612;28;20173;-77
2022/07/17 11:15:46;;;;;;;5.32;2.20;;;26.60;65.90;;;;;;5094633;28;20487;-77
2022/07/17 11:18:17;;;;;;;4.47;2.08;;;26.80;66.70;;;;;;5094622;28;20044;-77
2022/07/17 11:20:59;;;;;;;4.22;2.20;;;27.00;67.40;;;;;;5094178;28;20046;-75
2022/07/17 11:23:28;;;;;;;4.18;2.00;;;26.70;65.60;;;;;;5094244;28;20388;-76
2022/07/17 11:25:58;;;;;;;4.80;2.13;;;26.50;66.00;;;;;;5094717;28;20127;-75
2022/07/17 11:28:38;;;;;;;3.97;1.92;;;26.40;65.00;;;;;;5076573;28;20457;-77
2022/07/17 11:31:19;;;;;;;3.17;2.03;;;26.40;66.30;;;;;;5094415;28;20050;-76
2022/07/17 11:33:54;;;;;;;3.88;2.00;;;26.40;67.50;;;;;;5075872;28;20566;-76
2022/07/17 11:36:26;;;;;;;6.07;2.15;;;26.30;67.40;;;;;;5094336;28;20040;-77
2022/07/17 11:38:56;;;;;;;6.65;2.30;;;26.50;67.50;;;;;;5094051;28;20051;-75
2022/07/17 11:41:32;;;;;;;6.47;2.30;;;26.60;66.20;;;;;;5094229;28;20044;-78
2022/07/17 11:44:01;;;;;;;3.67;2.05;;;26.80;65.30;;;;;;5093818;28;20127;-77
2022/07/17 11:46:31;;;;;;;3.28;1.98;;;26.80;64.90;;;;;;5093812;28;20067;-77
2022/07/17 11:48:58;;;;;;;6.43;2.05;;;26.90;64.60;;;;;;5093592;28;20048;-77
2022/07/17 11:51:38;;;;;;;7.88;1.95;;;27.00;62.40;;;;;;5093863;28;20151;-77
2022/07/17 11:54:07;;;;;;;3.10;1.92;;;26.70;64.30;;;;;;5093348;28;20047;-77
2022/07/17 11:56:35;;;;;;;8.18;2.47;;;26.70;63.60;;;;;;5094045;28;20064;-77
2022/07/17 11:59:03;;;;;;;6.20;2.60;;;26.90;64.60;;;;;;5093616;28;20048;-78
2022/07/17 12:01:40;;;;;;;3.90;2.55;;;27.10;64.30;;;;;;5093601;28;20518;-77
2022/07/17 12:04:09;;;;;;;4.65;2.20;;;27.30;64.30;;;;;;5075295;28;20044;-77
2022/07/17 12:06:37;;;;;;;4.82;1.85;;;27.00;62.70;;;;;;5093389;28;20444;-76
2022/07/17 12:09:05;;;;;;;5.22;1.75;;;27.00;64.70;;;;;;5093514;28;20043;-76
2022/07/17 12:11:33;;;;;;;6.30;1.90;;;27.00;65.20;;;;;;5093688;28;20044;-76
2022/07/17 12:14:06;;;;;;;6.22;2.10;;;27.00;65.10;;;;;;5093494;28;20048;-76
2022/07/17 12:16:37;;;;;;;2.65;1.73;;;26.70;64.40;;;;;;5093717;28;20492;-77
2022/07/17 12:19:09;;;;;;;3.95;1.90;;;26.70;64.30;;;;;;5093397;28;20356;-76
2022/07/17 12:22:01;;;;;;;5.05;2.13;;;26.70;63.90;;;;;;5075452;28;20044;-77
2022/07/17 12:24:30;;;;;;;3.53;2.10;;;26.60;64.60;;;;;;5093391;28;20044;-77
2022/07/17 12:26:59;;;;;;;4.93;2.40;;;26.80;64.10;;;;;;5093390;28;20058;-76
2022/07/17 12:29:26;;;;;;;4.28;2.25;;;26.80;63.40;;;;;;5093696;28;20036;-76
2022/07/17 12:32:07;;;;;;;3.40;1.92;;;26.90;63.10;;;;;;5093198;28;20134;-77
2022/07/17 12:34:34;;;;;;;4.30;1.75;;;26.80;63.60;;;;;;5075081;28;20093;-78
2022/07/17 12:37:02;;;;;;;4.57;1.80;;;26.60;64.60;;;;;;5092802;28;20113;-75
2022/07/17 12:39:29;;;;;;;3.47;1.77;;;26.60;63.80;;;;;;5094015;28;20433;-79
2022/07/17 12:41:57;;;;;;;5.65;2.22;;;26.50;62.30;;;;;;5096874;28;20051;-78
2022/07/17 12:44:25;;;;;;;4.32;1.80;;;26.50;62.70;;;;;;5096597;28;20135;-81
2022/07/17 12:46:52;;;;;;;2.78;1.80;;;26.50;61.90;;;;;;5078239;28;20060;-80
2022/07/17 12:49:21;;;;;;;5.03;1.70;;;26.60;62.70;;;;;;5077815;28;20063;-79
2022/07/17 12:51:48;;;;;;;3.92;1.90;;;26.50;61.30;;;;;;5098074;28;20039;-80